createdAt,value
2022-08-03T00:08:58.426Z,1014.43
2022-08-03T00:23:59.575Z,1014.26
2022-08-03T00:39:00.802Z,1014.14
2022-08-03T00:54:02.023Z,1014.05
2022-08-03T01:09:03.148Z,1013.85
2022-08-03T01:24:04.418Z,1013.86
2022-08-03T01:39:05.591Z,1013.86
2022-08-03T01:54:06.154Z,1013.85
2022-08-03T02:09:06.895Z,1013.81
2022-08-03T02:24:08.009Z,1013.79
2022-08-03T02:39:09.316Z,1013.84
2022-08-03T02:54:10.440Z,1013.84
2022-08-03T03:09:11.550Z,1013.76
2022-08-03T03:24:12.684Z,1013.74
2022-08-03T03:39:15.200Z,1013.79
2022-08-03T03:54:17.654Z,1013.77
2022-08-03T04:09:19.161Z,1013.75
2022-08-03T04:24:19.897Z,1013.78
2022-08-03T04:39:21.609Z,1013.87
2022-08-03T04:54:22.734Z,1013.84
2022-08-03T05:09:50.129Z,1013.93
2022-08-03T05:24:29.691Z,1014.06
2022-08-03T05:39:30.405Z,1014.06
2022-08-03T05:54:56.326Z,1014.12
2022-08-03T06:10:35.409Z,1014.20
2022-08-03T06:24:53.664Z,1014.13
2022-08-03T06:39:52.398Z,1014.09
2022-08-03T06:54:53.149Z,1014.03
2022-08-03T07:09:57.640Z,1014.11
2022-08-03T07:24:58.460Z,1014.08
2022-08-03T07:39:59.584Z,1014.07
2022-08-03T07:55:00.739Z,1014.02
2022-08-03T08:10:01.941Z,1014.02
2022-08-03T08:25:03.036Z,1014.07
2022-08-03T08:40:03.758Z,1014.03
2022-08-03T08:55:03.844Z,1013.89
2022-08-03T09:10:12.495Z,1013.88
2022-08-03T09:25:25.233Z,1013.75
2022-08-03T09:40:16.920Z,1013.75
2022-08-03T09:56:32.737Z,1013.70
2022-08-03T10:10:30.403Z,1013.64
2022-08-03T10:25:33.177Z,1013.59
2022-08-03T10:40:51.839Z,1013.38
2022-08-03T10:55:40.757Z,1013.30
2022-08-03T11:10:41.976Z,1013.02
2022-08-03T11:25:55.119Z,1013.07
2022-08-03T11:40:49.672Z,1013.00
2022-08-03T11:55:50.929Z,1013.04
2022-08-03T12:10:52.004Z,1013.04
2022-08-03T12:25:53.232Z,1012.89
2022-08-03T12:40:56.370Z,1012.80
2022-08-03T12:56:05.903Z,1012.64
2022-08-03T13:11:03.767Z,1012.61
2022-08-03T13:26:04.973Z,1012.62
2022-08-03T13:41:06.491Z,1012.55
2022-08-03T13:56:06.947Z,1012.54
2022-08-03T14:11:08.007Z,1012.43
2022-08-03T14:26:09.705Z,1012.19
2022-08-03T14:41:12.334Z,1012.18
2022-08-03T14:56:15.542Z,1012.02
2022-08-03T15:11:16.263Z,1012.09
2022-08-03T15:26:32.700Z,1011.92
2022-08-03T15:41:23.657Z,1011.98
2022-08-03T15:56:24.795Z,1011.78
2022-08-03T16:11:28.010Z,1011.76
2022-08-03T16:26:28.723Z,1011.67
2022-08-03T16:41:53.494Z,1011.69
2022-08-03T16:56:39.051Z,1011.69
2022-08-03T17:11:46.861Z,1011.67
2022-08-03T17:26:49.956Z,1011.77
2022-08-03T17:41:51.109Z,1011.76
2022-08-03T17:56:52.348Z,1011.74
2022-08-03T18:11:53.500Z,1011.81
2022-08-03T18:26:55.683Z,1011.83
2022-08-03T18:41:57.931Z,1011.90
2022-08-03T18:57:00.001Z,1011.93
2022-08-03T19:12:11.237Z,1011.96
2022-08-03T19:27:06.757Z,1012.07
2022-08-03T19:42:20.073Z,1012.13
2022-08-03T19:57:18.728Z,1012.11
2022-08-03T20:12:20.402Z,1012.02
2022-08-03T20:27:30.242Z,1011.90
2022-08-03T20:42:31.027Z,1012.05
2022-08-03T20:57:33.161Z,1012.04
2022-08-03T21:12:33.751Z,1012.08
2022-08-03T21:27:34.972Z,1012.10
2022-08-03T21:42:36.151Z,1011.99
2022-08-03T21:57:38.420Z,1011.98
2022-08-03T22:12:40.789Z,1012.03
2022-08-03T22:27:41.402Z,1012.15
2022-08-03T22:42:41.661Z,1012.19
2022-08-03T22:57:41.987Z,1012.20
2022-08-03T23:12:42.563Z,1012.26
2022-08-03T23:27:43.816Z,1012.19
2022-08-03T23:42:45.011Z,1012.16
2022-08-03T23:57:46.265Z,1012.15
